Map

Track Data

SID SEASON NUMBER BASIN SUBBASIN NAME ISO_TIME NATURE LAT LON WMO_WIND WMO_PRES WMO_AGENCY TRACK_TYPE DIST2LAND LANDFALL IFLAG USA_AGENCY USA_ATCF_ID USA_LAT USA_LON USA_RECORD USA_STATUS USA_WIND USA_PRES USA_SSHS USA_R34_NE USA_R34_SE USA_R34_SW USA_R34_NW USA_R50_NE USA_R50_SE USA_R50_SW USA_R50_NW USA_R64_NE USA_R64_SE USA_R64_SW USA_R64_NW USA_POCI USA_ROCI USA_RMW USA_EYE TOKYO_LAT TOKYO_LON TOKYO_GRADE TOKYO_WIND TOKYO_PRES TOKYO_R50_DIR TOKYO_R50_LONG TOKYO_R50_SHORT TOKYO_R30_DIR TOKYO_R30_LONG TOKYO_R30_SHORT TOKYO_LAND CMA_LAT CMA_LON CMA_CAT CMA_WIND CMA_PRES HKO_LAT HKO_LON HKO_CAT HKO_WIND HKO_PRES NEWDELHI_LAT NEWDELHI_LON NEWDELHI_GRADE NEWDELHI_WIND NEWDELHI_PRES NEWDELHI_CI NEWDELHI_DP NEWDELHI_POCI REUNION_LAT REUNION_LON REUNION_TYPE REUNION_WIND REUNION_PRES REUNION_TNUM REUNION_CI REUNION_RMW REUNION_R34_NE REUNION_R34_SE REUNION_R34_SW REUNION_R34_NW REUNION_R50_NE REUNION_R50_SE REUNION_R50_SW REUNION_R50_NW REUNION_R64_NE REUNION_R64_SE REUNION_R64_SW REUNION_R64_NW BOM_LAT BOM_LON BOM_TYPE BOM_WIND BOM_PRES BOM_TNUM BOM_CI BOM_RMW BOM_R34_NE BOM_R34_SE BOM_R34_SW BOM_R34_NW BOM_R50_NE BOM_R50_SE BOM_R50_SW BOM_R50_NW BOM_R64_NE BOM_R64_SE BOM_R64_SW BOM_R64_NW BOM_ROCI BOM_POCI BOM_EYE BOM_POS_METHOD BOM_PRES_METHOD NADI_LAT NADI_LON NADI_CAT NADI_WIND NADI_PRES WELLINGTON_LAT WELLINGTON_LON WELLINGTON_WIND WELLINGTON_PRES DS824_LAT DS824_LON DS824_STAGE DS824_WIND DS824_PRES TD9636_LAT TD9636_LON TD9636_STAGE TD9636_WIND TD9636_PRES TD9635_LAT TD9635_LON TD9635_WIND TD9635_PRES TD9635_ROCI NEUMANN_LAT NEUMANN_LON NEUMANN_CLASS NEUMANN_WIND NEUMANN_PRES MLC_LAT MLC_LON MLC_CLASS MLC_WIND MLC_PRES USA_GUST BOM_GUST BOM_GUST_PER REUNION_GUST REUNION_GUST_PER USA_SEAHGT USA_SEARAD_NE USA_SEARAD_SE USA_SEARAD_SW USA_SEARAD_NW STORM_SPEED STORM_DIR
1875011S13061 1875 1 SI MM NOT_NAMED 1875-01-11 06:00:00 NR -13.0000 60.9000 reunion main 864 850 _____O____O___ -1 -12.7000 61.2000 99 9.90000 -13.3000 60.6000 7 3 234
1875011S13061 1875 1 SI MM NOT_NAMED 1875-01-11 09:00:00 NR -13.1018 60.7612 main 850 831 _____P____P___ -1 -12.7503 61.1301 99 -13.4533 60.3924 7 3 233
1875011S13061 1875 1 SI MM NOT_NAMED 1875-01-11 12:00:00 NR -13.2040 60.6225 main 831 817 _____P____P___ -1 -12.8029 61.0573 99 -13.6051 60.1877 7 3 233
1875011S13061 1875 1 SI MM NOT_NAMED 1875-01-11 15:00:00 NR -13.3073 60.4840 main 817 802 _____P____P___ -1 -12.8602 60.9788 99 -13.7545 59.9892 7 3 232
1875011S13061 1875 1 SI MM NOT_NAMED 1875-01-11 18:00:00 NR -13.4123 60.3459 main 799 785 _____P____O___ -1 -12.9246 60.8917 99 -13.9000 59.8000 7 3 232
1875011S13061 1875 1 SI MM NOT_NAMED 1875-01-11 21:00:00 NR -13.5194 60.2083 main 785 770 _____P____P___ -1 -12.9984 60.7932 99 -14.0403 59.6234 7 3 231
1875011S13061 1875 1 SI MM NOT_NAMED 1875-01-12 00:00:00 NR -13.6283 60.0714 main 770 753 _____P____P___ -1 -13.0841 60.6803 99 -14.1725 59.4625 7 3 231
1875011S13061 1875 1 SI MM NOT_NAMED 1875-01-12 03:00:00 NR -13.7386 59.9353 main 753 739 _____P____P___ -1 -13.1838 60.5502 99 -14.2934 59.3203 7 3 230
1875011S13061 1875 1 SI MM NOT_NAMED 1875-01-12 06:00:00 NR -13.8500 59.8000 reunion main 739 714 _____O____O___ -1 -13.3000 60.4000 99 9.90000 -14.4000 59.2000 7 3 229
1875011S13061 1875 1 SI MM NOT_NAMED 1875-01-12 09:00:00 NR -13.9616 59.6678 main 714 698 _____P____P___ -1 -13.4338 60.2282 99 -14.4893 59.1074 7 3 229
1875011S13061 1875 1 SI MM NOT_NAMED 1875-01-12 12:00:00 NR -14.0733 59.5372 main 698 684 _____P____P___ -1 -13.5817 60.0395 99 -14.5649 59.0349 7 3 229
1875011S13061 1875 1 SI MM NOT_NAMED 1875-01-12 15:00:00 NR -14.1860 59.4050 main 684 670 _____P____P___ -1 -13.7389 59.8401 99 -14.6331 58.9699 7 3 229
1875011S13061 1875 1 SI MM NOT_NAMED 1875-01-12 18:00:00 NR -14.3003 59.2681 main 670 654 _____P____O___ -1 -13.9007 59.6361 99 -14.7000 58.9000 7 4 230
1875011S13061 1875 1 SI MM NOT_NAMED 1875-01-12 21:00:00 NR -14.4187 59.1185 main 654 641 _____P____P___ -1 -14.0624 59.4338 99 -14.7750 58.8031 7 4 231
1875011S13061 1875 1 SI MM NOT_NAMED 1875-01-13 00:00:00 NR -14.5346 58.9698 main 641 626 _____P____P___ -1 -14.2192 59.2395 99 -14.8500 58.7000 7 4 231
1875011S13061 1875 1 SI MM NOT_NAMED 1875-01-13 03:00:00 NR -14.6458 58.8282 main 626 613 _____P____P___ -1 -14.3667 59.0595 99 -14.9250 58.5969 7 3 231
1875011S13061 1875 1 SI MM NOT_NAMED 1875-01-13 06:00:00 NR -14.7500 58.7000 reunion main 613 600 _____O____O___ -1 -14.5000 58.9000 99 9.90000 -15.0000 58.5000 7 3 228
1875011S13061 1875 1 SI MM NOT_NAMED 1875-01-13 09:00:00 NR -14.8368 58.6033 main 600 588 _____P____P___ -1 -14.6027 58.7847 99 -15.0709 58.4218 7 2 226
1875011S13061 1875 1 SI MM NOT_NAMED 1875-01-13 12:00:00 NR -14.9176 58.5194 main 588 575 _____P____P___ -1 -14.6927 58.6888 99 -15.1425 58.3499 7 2 224
1875011S13061 1875 1 SI MM NOT_NAMED 1875-01-13 15:00:00 NR -14.9952 58.4432 main 575 564 _____P____P___ -1 -14.7726 58.6083 99 -15.2178 58.2781 7 2 222
1875011S13061 1875 1 SI MM NOT_NAMED 1875-01-13 18:00:00 NR -15.0723 58.3696 main 564 563 _____P____O___ -1 -14.8445 58.5393 99 -15.3000 58.2000 7 2 223
1875011S13061 1875 1 SI MM NOT_NAMED 1875-01-13 21:00:00 NR -15.1539 58.2905 main 551 550 _____P____P___ -1 -14.9109 58.4779 99 -15.3969 58.1032 7 2 223
1875011S13061 1875 1 SI MM NOT_NAMED 1875-01-14 00:00:00 NR -15.2370 58.2101 main 550 538 _____P____P___ -1 -14.9741 58.4202 99 -15.5000 58.0000 7 2 223
1875011S13061 1875 1 SI MM NOT_NAMED 1875-01-14 03:00:00 NR -15.3197 58.1295 main 538 527 _____P____P___ -1 -15.0363 58.3622 99 -15.6031 57.8969 7 2 223
1875011S13061 1875 1 SI MM NOT_NAMED 1875-01-14 06:00:00 NR -15.4000 58.0500 reunion main 527 515 _____O____O___ -1 -15.1000 58.3000 99 9.90000 -15.7000 57.8000 7 2 225
1875011S13061 1875 1 SI MM NOT_NAMED 1875-01-14 09:00:00 NR -15.4776 57.9665 main 515 515 _____P____P___ -1 -15.1731 58.2152 99 -15.7822 57.7178 7 2 226
1875011S13061 1875 1 SI MM NOT_NAMED 1875-01-14 12:00:00 NR -15.5517 57.8853 main 503 503 _____P____P___ -1 -15.2459 58.1281 99 -15.8575 57.6424 7 2 227
1875011S13061 1875 1 SI MM NOT_NAMED 1875-01-14 15:00:00 NR -15.6240 57.8051 main 503 492 _____P____P___ -1 -15.3190 58.0394 99 -15.9290 57.5709 7 2 226
1875011S13061 1875 1 SI MM NOT_NAMED 1875-01-14 18:00:00 NR -15.6963 57.7250 main 492 481 _____P____O___ -1 -15.3925 57.9499 99 -16.0000 57.5000 7 2 227
1875011S13061 1875 1 SI MM NOT_NAMED 1875-01-14 21:00:00 NR -15.7629 57.6488 main 481 481 _____P____P___ -1 -15.4670 57.8605 99 -16.0587 57.4371 7 2 228
1875011S13061 1875 1 SI MM NOT_NAMED 1875-01-15 00:00:00 NR -15.8314 57.5721 main 481 469 _____P____P___ -1 -15.5428 57.7718 99 -16.1199 57.3723 7 2 227
1875011S13061 1875 1 SI MM NOT_NAMED 1875-01-15 03:00:00 NR -15.9083 57.4906 main 469 458 _____P____P___ -1 -15.6204 57.6847 99 -16.1962 57.2964 7 2 224
1875011S13061 1875 1 SI MM NOT_NAMED 1875-01-15 06:00:00 NR -16.0000 57.4000 reunion main 458 447 _____O____O___ -1 -15.7000 57.6000 99 9.90000 -16.3000 57.2000 7 3 222
1875011S13061 1875 1 SI MM NOT_NAMED 1875-01-15 09:00:00 NR -16.1118 57.2987 main 448 436 _____P____P___ -1 -15.7732 57.5297 99 -16.4504 57.0676 7 3 220
1875011S13061 1875 1 SI MM NOT_NAMED 1875-01-15 12:00:00 NR -16.2374 57.1890 main 437 416 _____P____P___ -1 -15.8473 57.4627 99 -16.6276 56.9152 7 3 220
1875011S13061 1875 1 SI MM NOT_NAMED 1875-01-15 15:00:00 NR -16.3700 57.0759 main 416 406 _____P____P___ -1 -15.9240 57.3967 99 -16.8160 56.7551 7 3 219
1875011S13061 1875 1 SI MM NOT_NAMED 1875-01-15 18:00:00 NR -16.5024 56.9647 main 406 396 _____P____O___ -1 -16.0047 57.3294 99 -17.0000 56.6000 7 3 219
1875011S13061 1875 1 SI MM NOT_NAMED 1875-01-15 21:00:00 NR -16.6293 56.8590 main 396 387 _____P____P___ -1 -16.0911 57.2584 99 -17.1675 56.4596 7 2 220
1875011S13061 1875 1 SI MM NOT_NAMED 1875-01-16 00:00:00 NR -16.6713 56.8176 main 387 387 _____P____P___ -1 -16.1848 57.1814 99 -17.3200 56.3325 7 1 231
1875011S13061 1875 1 SI MM NOT_NAMED 1875-01-16 03:00:00 NR -16.6790 56.8020 main 387 387 _____P____P___ -1 -16.2872 57.0960 99 -17.4625 56.2141 7 0 38
1875011S13061 1875 1 SI MM NOT_NAMED 1875-01-16 06:00:00 NR -16.6400 56.8200 reunion main 398 396 _____O____O___ -1 -16.4000 57.0000 99 9.90000 -17.6000 56.1000 7 2 27
1875011S13061 1875 1 SI MM NOT_NAMED 1875-01-16 09:00:00 NR -16.5384 56.8765 main 407 387 _____P________ -1 -16.5384 56.8765 99 7 1 240
1875011S13061 1875 1 SI MM NOT_NAMED 1875-01-16 12:00:00 NR -16.6887 56.7412 main 389 378 _____P________ -1 -16.6887 56.7412 99 7 4 221
1875011S13061 1875 1 SI MM NOT_NAMED 1875-01-16 15:00:00 NR -16.8466 56.5981 main 381 362 _____P________ -1 -16.8466 56.5981 99 7 4 221
1875011S13061 1875 1 SI MM NOT_NAMED 1875-01-16 18:00:00 NR -17.0079 56.4509 main 362 348 _____P________ -1 -17.0079 56.4509 99 4 221
1875011S13061 1875 1 SI MM NOT_NAMED 1875-01-16 21:00:00 NR -17.1681 56.3035 main 348 341 _____P________ -1 -17.1681 56.3035 99 4 221
1875011S13061 1875 1 SI MM NOT_NAMED 1875-01-17 00:00:00 NR -17.3231 56.1600 main 341 330 _____P________ -1 -17.3231 56.1600 99 4 222
1875011S13061 1875 1 SI MM NOT_NAMED 1875-01-17 03:00:00 NR -17.4685 56.0241 main 330 326 _____P________ -1 -17.4685 56.0241 99 4 222
1875011S13061 1875 1 SI MM NOT_NAMED 1875-01-17 06:00:00 NR -17.6000 55.9000 reunion main 326 322 _____O________ -1 -17.6000 55.9000 99 9.90000 3 222
1875011S13061 1875 1 SI MM NOT_NAMED 1875-01-17 09:00:00 NR -17.7145 55.7906 main 322 313 _____P________ -1 -17.7145 55.7906 99 3 222
1875011S13061 1875 1 SI MM NOT_NAMED 1875-01-17 12:00:00 NR -17.8132 55.6949 main 319 310 _____P________ -1 -17.8132 55.6949 99 3 223
1875011S13061 1875 1 SI MM NOT_NAMED 1875-01-17 15:00:00 NR -17.8984 55.6110 main 316 308 _____P________ -1 -17.8984 55.6110 99 2 223
1875011S13061 1875 1 SI MM NOT_NAMED 1875-01-17 18:00:00 NR -17.9722 55.5369 main 315 315 _____P________ -1 -17.9722 55.5369 99 2 223
1875011S13061 1875 1 SI MM NOT_NAMED 1875-01-17 21:00:00 NR -18.0371 55.4708 main 315 306 _____P________ -1 -18.0371 55.4708 99 2 225
1875011S13061 1875 1 SI MM NOT_NAMED 1875-01-18 00:00:00 NR -18.0951 55.4106 main 314 314 _____P________ -1 -18.0951 55.4106 99 2 225
1875011S13061 1875 1 SI MM NOT_NAMED 1875-01-18 03:00:00 NR -18.1487 55.3543 main 314 306 _____P________ -1 -18.1487 55.3543 99 1 225
1875011S13061 1875 1 SI MM NOT_NAMED 1875-01-18 06:00:00 NR -18.2000 55.3000 reunion main 313 _____O________ -1 -18.2000 55.3000 99 9.90000 1 230

About IBTrACS Database

This database is a web-friendly format of International Best Track Archive for Climate Stewardship (IBTrACS), a global best track data archive curated by NOAA dating back to 1842.

Updated: 2021-11-26